sensor_id;sensor_type;location;lat;lon;timestamp;temperature;humidity
41904;DHT22;27586;51.124;4.182;2023-02-28T00:01:12;2.10;99.90
41904;DHT22;27586;51.124;4.182;2023-02-28T00:03:38;2.00;99.90
41904;DHT22;27586;51.124;4.182;2023-02-28T00:06:06;2.00;99.90
41904;DHT22;27586;51.124;4.182;2023-02-28T00:08:31;2.00;99.90
41904;DHT22;27586;51.124;4.182;2023-02-28T00:11:04;2.10;99.90
41904;DHT22;27586;51.124;4.182;2023-02-28T00:13:34;2.00;99.90
41904;DHT22;27586;51.124;4.182;2023-02-28T00:16:02;2.00;99.90
41904;DHT22;27586;51.124;4.182;2023-02-28T00:18:28;1.90;99.90
41904;DHT22;27586;51.124;4.182;2023-02-28T00:20:54;2.00;99.90
41904;DHT22;27586;51.124;4.182;2023-02-28T00:23:20;1.90;99.90
41904;DHT22;27586;51.124;4.182;2023-02-28T00:25:45;1.80;99.90
41904;DHT22;27586;51.124;4.182;2023-02-28T00:28:11;1.80;99.90
41904;DHT22;27586;51.124;4.182;2023-02-28T00:30:36;1.90;99.90
41904;DHT22;27586;51.124;4.182;2023-02-28T00:33:02;1.90;99.90
41904;DHT22;27586;51.124;4.182;2023-02-28T00:35:28;1.90;99.90
41904;DHT22;27586;51.124;4.182;2023-02-28T00:37:53;1.90;99.90
41904;DHT22;27586;51.124;4.182;2023-02-28T00:40:20;1.80;99.90
41904;DHT22;27586;51.124;4.182;2023-02-28T00:42:46;1.80;99.90
41904;DHT22;27586;51.124;4.182;2023-02-28T00:45:12;1.80;99.90
41904;DHT22;27586;51.124;4.182;2023-02-28T00:47:38;1.90;99.90
41904;DHT22;27586;51.124;4.182;2023-02-28T00:50:04;1.90;99.90
41904;DHT22;27586;51.124;4.182;2023-02-28T00:52:30;1.80;99.90
41904;DHT22;27586;51.124;4.182;2023-02-28T00:54:56;1.80;99.90
41904;DHT22;27586;51.124;4.182;2023-02-28T00:57:22;1.70;99.90
41904;DHT22;27586;51.124;4.182;2023-02-28T00:59:47;1.80;99.90
41904;DHT22;27586;51.124;4.182;2023-02-28T01:02:13;1.80;99.90
41904;DHT22;27586;51.124;4.182;2023-02-28T01:04:39;1.80;99.90
41904;DHT22;27586;51.124;4.182;2023-02-28T01:07:05;1.70;99.90
41904;DHT22;27586;51.124;4.182;2023-02-28T01:09:30;1.80;99.90
41904;DHT22;27586;51.124;4.182;2023-02-28T01:11:56;1.80;99.90
41904;DHT22;27586;51.124;4.182;2023-02-28T01:14:22;1.80;99.90
41904;DHT22;27586;51.124;4.182;2023-02-28T01:16:47;1.80;99.90
41904;DHT22;27586;51.124;4.182;2023-02-28T01:19:13;1.70;99.90
41904;DHT22;27586;51.124;4.182;2023-02-28T01:21:39;1.70;99.90
41904;DHT22;27586;51.124;4.182;2023-02-28T01:24:05;1.70;99.90
41904;DHT22;27586;51.124;4.182;2023-02-28T01:26:31;1.70;99.90
41904;DHT22;27586;51.124;4.182;2023-02-28T01:28:57;1.70;99.90
41904;DHT22;27586;51.124;4.182;2023-02-28T01:31:23;1.70;99.90
41904;DHT22;27586;51.124;4.182;2023-02-28T01:33:50;1.80;99.90
41904;DHT22;27586;51.124;4.182;2023-02-28T01:36:18;1.80;99.90
41904;DHT22;27586;51.124;4.182;2023-02-28T01:38:45;1.70;99.90
41904;DHT22;27586;51.124;4.182;2023-02-28T01:41:24;1.60;99.90
41904;DHT22;27586;51.124;4.182;2023-02-28T01:46:16;1.60;99.90
41904;DHT22;27586;51.124;4.182;2023-02-28T01:49:17;1.60;99.90
41904;DHT22;27586;51.124;4.182;2023-02-28T01:51:43;1.60;99.90
41904;DHT22;27586;51.124;4.182;2023-02-28T01:54:15;1.60;99.90
41904;DHT22;27586;51.124;4.182;2023-02-28T01:56:46;1.60;99.90
41904;DHT22;27586;51.124;4.182;2023-02-28T01:59:27;1.70;99.90
41904;DHT22;27586;51.124;4.182;2023-02-28T02:01:55;1.60;99.90
41904;DHT22;27586;51.124;4.182;2023-02-28T02:04:23;1.50;99.90
41904;DHT22;27586;51.124;4.182;2023-02-28T02:06:49;1.60;99.90
41904;DHT22;27586;51.124;4.182;2023-02-28T02:09:15;1.40;99.90
41904;DHT22;27586;51.124;4.182;2023-02-28T02:11:42;1.40;99.90
41904;DHT22;27586;51.124;4.182;2023-02-28T02:17:19;1.40;99.90
41904;DHT22;27586;51.124;4.182;2023-02-28T02:30:38;1.30;99.90
41904;DHT22;27586;51.124;4.182;2023-02-28T02:33:22;1.40;99.90
41904;DHT22;27586;51.124;4.182;2023-02-28T02:36:23;1.40;99.90
41904;DHT22;27586;51.124;4.182;2023-02-28T02:41:39;1.30;99.90
41904;DHT22;27586;51.124;4.182;2023-02-28T02:44:29;1.40;99.90
41904;DHT22;27586;51.124;4.182;2023-02-28T02:47:03;1.30;99.90
41904;DHT22;27586;51.124;4.182;2023-02-28T02:49:32;1.30;99.90
41904;DHT22;27586;51.124;4.182;2023-02-28T02:52:09;1.30;99.90
41904;DHT22;27586;51.124;4.182;2023-02-28T02:54:38;1.20;99.90
41904;DHT22;27586;51.124;4.182;2023-02-28T02:57:16;1.20;99.90
41904;DHT22;27586;51.124;4.182;2023-02-28T02:59:43;1.20;99.90
41904;DHT22;27586;51.124;4.182;2023-02-28T03:02:12;1.20;99.90
41904;DHT22;27586;51.124;4.182;2023-02-28T03:04:43;1.10;99.90
41904;DHT22;27586;51.124;4.182;2023-02-28T03:07:10;1.00;99.90
41904;DHT22;27586;51.124;4.182;2023-02-28T03:09:36;1.10;99.90
41904;DHT22;27586;51.124;4.182;2023-02-28T03:12:02;1.10;99.90
41904;DHT22;27586;51.124;4.182;2023-02-28T03:17:44;1.20;99.90
41904;DHT22;27586;51.124;4.182;2023-02-28T03:23:21;1.10;99.90
41904;DHT22;27586;51.124;4.182;2023-02-28T03:26:12;1.20;99.90
41904;DHT22;27586;51.124;4.182;2023-02-28T03:34:17;1.30;99.90
41904;DHT22;27586;51.124;4.182;2023-02-28T03:36:47;1.30;99.90
41904;DHT22;27586;51.124;4.182;2023-02-28T03:39:37;1.20;99.90
41904;DHT22;27586;51.124;4.182;2023-02-28T03:42:11;1.20;99.90
41904;DHT22;27586;51.124;4.182;2023-02-28T03:44:43;1.20;99.90
41904;DHT22;27586;51.124;4.182;2023-02-28T03:47:17;1.20;99.90
41904;DHT22;27586;51.124;4.182;2023-02-28T03:50:07;1.30;99.90
41904;DHT22;27586;51.124;4.182;2023-02-28T03:52:38;1.30;99.90
41904;DHT22;27586;51.124;4.182;2023-02-28T03:55:11;1.30;99.90
41904;DHT22;27586;51.124;4.182;2023-02-28T04:00:42;1.40;99.90
41904;DHT22;27586;51.124;4.182;2023-02-28T04:03:06;1.40;99.90
41904;DHT22;27586;51.124;4.182;2023-02-28T04:05:32;1.50;99.90
41904;DHT22;27586;51.124;4.182;2023-02-28T04:08:06;1.40;99.90
41904;DHT22;27586;51.124;4.182;2023-02-28T04:10:32;1.60;99.90
41904;DHT22;27586;51.124;4.182;2023-02-28T04:12:58;1.60;99.90
41904;DHT22;27586;51.124;4.182;2023-02-28T04:15:24;1.60;99.90
41904;DHT22;27586;51.124;4.182;2023-02-28T04:17:50;1.60;99.90
41904;DHT22;27586;51.124;4.182;2023-02-28T04:20:16;1.70;99.90
41904;DHT22;27586;51.124;4.182;2023-02-28T04:22:42;1.70;99.90
41904;DHT22;27586;51.124;4.182;2023-02-28T04:25:08;1.80;99.90
41904;DHT22;27586;51.124;4.182;2023-02-28T04:27:34;1.90;99.90
41904;DHT22;27586;51.124;4.182;2023-02-28T04:29:59;1.90;99.90
41904;DHT22;27586;51.124;4.182;2023-02-28T04:32:25;1.90;99.90
41904;DHT22;27586;51.124;4.182;2023-02-28T04:34:51;1.90;99.90
41904;DHT22;27586;51.124;4.182;2023-02-28T04:37:16;2.10;99.90
41904;DHT22;27586;51.124;4.182;2023-02-28T04:39:43;2.10;99.90
41904;DHT22;27586;51.124;4.182;2023-02-28T04:42:09;2.00;99.90
41904;DHT22;27586;51.124;4.182;2023-02-28T04:44:35;2.00;99.90
41904;DHT22;27586;51.124;4.182;2023-02-28T04:47:00;2.00;99.90
41904;DHT22;27586;51.124;4.182;2023-02-28T04:49:26;2.00;99.90
41904;DHT22;27586;51.124;4.182;2023-02-28T04:51:52;2.10;99.90
41904;DHT22;27586;51.124;4.182;2023-02-28T04:54:18;2.10;99.90
41904;DHT22;27586;51.124;4.182;2023-02-28T04:56:44;2.10;99.90
41904;DHT22;27586;51.124;4.182;2023-02-28T04:59:09;2.10;99.90
41904;DHT22;27586;51.124;4.182;2023-02-28T05:01:35;2.10;99.90
41904;DHT22;27586;51.124;4.182;2023-02-28T05:04:03;2.10;99.90
41904;DHT22;27586;51.124;4.182;2023-02-28T05:06:31;2.10;99.90
41904;DHT22;27586;51.124;4.182;2023-02-28T05:08:57;2.10;99.90
41904;DHT22;27586;51.124;4.182;2023-02-28T05:11:31;2.10;99.90
41904;DHT22;27586;51.124;4.182;2023-02-28T05:14:03;2.00;99.90
41904;DHT22;27586;51.124;4.182;2023-02-28T05:16:29;2.00;99.90
41904;DHT22;27586;51.124;4.182;2023-02-28T05:18:55;2.10;99.90
41904;DHT22;27586;51.124;4.182;2023-02-28T05:21:30;2.30;99.90
41904;DHT22;27586;51.124;4.182;2023-02-28T05:23:58;2.20;99.90
41904;DHT22;27586;51.124;4.182;2023-02-28T05:26:25;2.20;99.90
41904;DHT22;27586;51.124;4.182;2023-02-28T05:28:51;2.20;99.90
41904;DHT22;27586;51.124;4.182;2023-02-28T05:31:17;2.30;99.90
41904;DHT22;27586;51.124;4.182;2023-02-28T05:33:42;2.20;99.90
41904;DHT22;27586;51.124;4.182;2023-02-28T05:36:08;2.20;99.90
41904;DHT22;27586;51.124;4.182;2023-02-28T05:38:34;2.20;99.90
41904;DHT22;27586;51.124;4.182;2023-02-28T05:41:00;2.10;99.90
41904;DHT22;27586;51.124;4.182;2023-02-28T05:43:25;2.10;99.90
41904;DHT22;27586;51.124;4.182;2023-02-28T05:45:51;2.20;99.90
41904;DHT22;27586;51.124;4.182;2023-02-28T05:48:17;2.30;99.90
41904;DHT22;27586;51.124;4.182;2023-02-28T05:50:43;2.20;99.90
41904;DHT22;27586;51.124;4.182;2023-02-28T05:53:11;2.30;99.90
41904;DHT22;27586;51.124;4.182;2023-02-28T05:55:37;2.30;99.90
41904;DHT22;27586;51.124;4.182;2023-02-28T05:58:03;2.30;99.90
41904;DHT22;27586;51.124;4.182;2023-02-28T06:00:29;2.30;99.90
41904;DHT22;27586;51.124;4.182;2023-02-28T06:02:54;2.30;99.90
41904;DHT22;27586;51.124;4.182;2023-02-28T06:05:23;2.20;99.90
41904;DHT22;27586;51.124;4.182;2023-02-28T06:07:49;2.30;99.90
41904;DHT22;27586;51.124;4.182;2023-02-28T06:10:15;2.30;99.90
41904;DHT22;27586;51.124;4.182;2023-02-28T06:12:41;2.40;99.90
41904;DHT22;27586;51.124;4.182;2023-02-28T06:15:16;2.30;99.90
41904;DHT22;27586;51.124;4.182;2023-02-28T06:17:43;2.40;99.90
41904;DHT22;27586;51.124;4.182;2023-02-28T06:20:11;2.60;99.90
41904;DHT22;27586;51.124;4.182;2023-02-28T06:22:38;2.60;99.90
41904;DHT22;27586;51.124;4.182;2023-02-28T06:25:05;2.60;99.90
41904;DHT22;27586;51.124;4.182;2023-02-28T06:27:32;2.60;99.90
41904;DHT22;27586;51.124;4.182;2023-02-28T06:29:58;2.80;99.90
41904;DHT22;27586;51.124;4.182;2023-02-28T06:32:24;2.70;99.90
41904;DHT22;27586;51.124;4.182;2023-02-28T06:34:49;2.60;99.90
41904;DHT22;27586;51.124;4.182;2023-02-28T06:37:16;2.60;99.90
41904;DHT22;27586;51.124;4.182;2023-02-28T06:39:42;2.60;99.90
41904;DHT22;27586;51.124;4.182;2023-02-28T06:42:08;2.60;99.90
41904;DHT22;27586;51.124;4.182;2023-02-28T06:44:34;2.40;99.90
41904;DHT22;27586;51.124;4.182;2023-02-28T06:47:04;2.50;99.90
41904;DHT22;27586;51.124;4.182;2023-02-28T06:49:31;2.50;99.90
41904;DHT22;27586;51.124;4.182;2023-02-28T06:51:57;2.40;99.90
41904;DHT22;27586;51.124;4.182;2023-02-28T06:54:23;2.50;99.90
41904;DHT22;27586;51.124;4.182;2023-02-28T06:56:49;2.50;99.90
41904;DHT22;27586;51.124;4.182;2023-02-28T06:59:15;2.60;99.90
41904;DHT22;27586;51.124;4.182;2023-02-28T07:01:41;2.70;99.90
41904;DHT22;27586;51.124;4.182;2023-02-28T07:04:07;2.60;99.90
41904;DHT22;27586;51.124;4.182;2023-02-28T07:06:33;2.70;99.90
41904;DHT22;27586;51.124;4.182;2023-02-28T07:08:59;2.70;99.90
41904;DHT22;27586;51.124;4.182;2023-02-28T07:11:26;2.70;99.90
41904;DHT22;27586;51.124;4.182;2023-02-28T07:13:56;2.60;99.90
41904;DHT22;27586;51.124;4.182;2023-02-28T07:16:23;2.60;99.90
41904;DHT22;27586;51.124;4.182;2023-02-28T07:18:49;2.60;99.90
41904;DHT22;27586;51.124;4.182;2023-02-28T07:21:15;2.70;99.90
41904;DHT22;27586;51.124;4.182;2023-02-28T07:23:41;2.70;99.90
41904;DHT22;27586;51.124;4.182;2023-02-28T07:26:14;2.70;99.90
41904;DHT22;27586;51.124;4.182;2023-02-28T07:28:44;2.70;99.90
41904;DHT22;27586;51.124;4.182;2023-02-28T07:31:12;2.80;99.90
41904;DHT22;27586;51.124;4.182;2023-02-28T07:33:39;2.70;99.90
41904;DHT22;27586;51.124;4.182;2023-02-28T07:36:11;2.70;99.90
41904;DHT22;27586;51.124;4.182;2023-02-28T07:38:42;2.80;99.90
41904;DHT22;27586;51.124;4.182;2023-02-28T07:41:09;2.70;99.90
41904;DHT22;27586;51.124;4.182;2023-02-28T07:43:35;2.80;99.90
41904;DHT22;27586;51.124;4.182;2023-02-28T07:46:13;2.90;99.90
41904;DHT22;27586;51.124;4.182;2023-02-28T07:48:41;2.90;99.90
41904;DHT22;27586;51.124;4.182;2023-02-28T07:51:07;2.90;99.90
41904;DHT22;27586;51.124;4.182;2023-02-28T07:53:33;3.00;99.90
41904;DHT22;27586;51.124;4.182;2023-02-28T07:56:00;3.10;99.90
41904;DHT22;27586;51.124;4.182;2023-02-28T07:58:26;3.10;99.90
41904;DHT22;27586;51.124;4.182;2023-02-28T08:00:52;3.10;99.90
41904;DHT22;27586;51.124;4.182;2023-02-28T08:03:20;3.10;99.90
41904;DHT22;27586;51.124;4.182;2023-02-28T08:05:47;3.20;99.90
41904;DHT22;27586;51.124;4.182;2023-02-28T08:08:14;3.10;99.90
41904;DHT22;27586;51.124;4.182;2023-02-28T08:10:39;3.20;99.90
41904;DHT22;27586;51.124;4.182;2023-02-28T08:13:05;3.30;99.90
41904;DHT22;27586;51.124;4.182;2023-02-28T08:15:31;3.50;99.90
41904;DHT22;27586;51.124;4.182;2023-02-28T08:17:57;3.60;99.90
41904;DHT22;27586;51.124;4.182;2023-02-28T08:20:24;3.70;99.90
41904;DHT22;27586;51.124;4.182;2023-02-28T08:22:50;3.80;99.90
41904;DHT22;27586;51.124;4.182;2023-02-28T08:25:16;3.80;99.90
41904;DHT22;27586;51.124;4.182;2023-02-28T08:27:42;3.80;99.90
41904;DHT22;27586;51.124;4.182;2023-02-28T08:30:13;3.70;99.90
41904;DHT22;27586;51.124;4.182;2023-02-28T08:32:39;3.90;99.90
41904;DHT22;27586;51.124;4.182;2023-02-28T08:35:05;3.90;99.90
41904;DHT22;27586;51.124;4.182;2023-02-28T08:37:31;4.00;99.90
41904;DHT22;27586;51.124;4.182;2023-02-28T08:39:56;4.20;99.90
41904;DHT22;27586;51.124;4.182;2023-02-28T08:42:23;4.20;99.90
41904;DHT22;27586;51.124;4.182;2023-02-28T08:44:48;4.30;99.90
41904;DHT22;27586;51.124;4.182;2023-02-28T08:47:14;4.40;99.90
41904;DHT22;27586;51.124;4.182;2023-02-28T08:49:40;4.40;99.90
41904;DHT22;27586;51.124;4.182;2023-02-28T08:52:06;4.60;99.90
41904;DHT22;27586;51.124;4.182;2023-02-28T08:54:32;4.70;99.90
41904;DHT22;27586;51.124;4.182;2023-02-28T08:56:58;4.50;99.90
41904;DHT22;27586;51.124;4.182;2023-02-28T08:59:24;4.30;98.90
41904;DHT22;27586;51.124;4.182;2023-02-28T09:01:49;4.40;98.00
41904;DHT22;27586;51.124;4.182;2023-02-28T09:04:15;4.60;97.50
41904;DHT22;27586;51.124;4.182;2023-02-28T09:06:41;4.90;97.40
41904;DHT22;27586;51.124;4.182;2023-02-28T09:09:07;5.00;95.60
41904;DHT22;27586;51.124;4.182;2023-02-28T09:11:34;5.10;95.50
41904;DHT22;27586;51.124;4.182;2023-02-28T09:14:01;5.00;94.30
41904;DHT22;27586;51.124;4.182;2023-02-28T09:16:29;5.10;94.60
41904;DHT22;27586;51.124;4.182;2023-02-28T09:18:55;5.40;94.00
41904;DHT22;27586;51.124;4.182;2023-02-28T09:21:20;5.50;92.60
41904;DHT22;27586;51.124;4.182;2023-02-28T09:23:48;5.20;92.00
41904;DHT22;27586;51.124;4.182;2023-02-28T09:26:17;5.20;91.90
41904;DHT22;27586;51.124;4.182;2023-02-28T09:28:43;5.20;91.30
41904;DHT22;27586;51.124;4.182;2023-02-28T09:31:17;5.30;90.10
41904;DHT22;27586;51.124;4.182;2023-02-28T09:33:46;5.30;91.20
41904;DHT22;27586;51.124;4.182;2023-02-28T09:36:12;5.40;90.80
41904;DHT22;27586;51.124;4.182;2023-02-28T09:38:38;5.50;90.60
41904;DHT22;27586;51.124;4.182;2023-02-28T09:41:14;5.70;91.50
41904;DHT22;27586;51.124;4.182;2023-02-28T09:43:45;5.70;91.20
41904;DHT22;27586;51.124;4.182;2023-02-28T09:46:47;6.00;90.70
41904;DHT22;27586;51.124;4.182;2023-02-28T09:49:18;6.00;91.60
41904;DHT22;27586;51.124;4.182;2023-02-28T09:51:58;6.00;91.50
41904;DHT22;27586;51.124;4.182;2023-02-28T09:54:28;6.30;91.00
41904;DHT22;27586;51.124;4.182;2023-02-28T09:57:01;6.60;90.80
41904;DHT22;27586;51.124;4.182;2023-02-28T10:05:11;6.60;91.70
41904;DHT22;27586;51.124;4.182;2023-02-28T10:10:53;6.40;90.80
41904;DHT22;27586;51.124;4.182;2023-02-28T10:13:25;5.80;91.30
41904;DHT22;27586;51.124;4.182;2023-02-28T10:15:56;6.00;91.60
41904;DHT22;27586;51.124;4.182;2023-02-28T10:18:52;6.00;91.90
41904;DHT22;27586;51.124;4.182;2023-02-28T10:21:26;5.90;91.10
41904;DHT22;27586;51.124;4.182;2023-02-28T10:24:01;6.10;91.40
41904;DHT22;27586;51.124;4.182;2023-02-28T10:26:29;6.10;91.50
41904;DHT22;27586;51.124;4.182;2023-02-28T10:28:55;6.00;88.10
41904;DHT22;27586;51.124;4.182;2023-02-28T10:31:21;6.10;90.60
41904;DHT22;27586;51.124;4.182;2023-02-28T10:33:47;6.40;89.70
41904;DHT22;27586;51.124;4.182;2023-02-28T10:36:18;6.80;89.10
41904;DHT22;27586;51.124;4.182;2023-02-28T10:38:45;6.70;86.00
41904;DHT22;27586;51.124;4.182;2023-02-28T10:41:15;6.70;86.50
41904;DHT22;27586;51.124;4.182;2023-02-28T10:43:43;6.00;87.50
41904;DHT22;27586;51.124;4.182;2023-02-28T10:51:10;6.20;89.70
41904;DHT22;27586;51.124;4.182;2023-02-28T10:53:50;6.00;88.50
41904;DHT22;27586;51.124;4.182;2023-02-28T10:56:21;6.10;87.00
41904;DHT22;27586;51.124;4.182;2023-02-28T10:58:54;6.20;87.70
41904;DHT22;27586;51.124;4.182;2023-02-28T11:01:42;6.30;86.90
41904;DHT22;27586;51.124;4.182;2023-02-28T11:07:20;6.00;84.00
41904;DHT22;27586;51.124;4.182;2023-02-28T11:09:49;6.10;85.30
41904;DHT22;27586;51.124;4.182;2023-02-28T11:12:37;6.20;85.10
41904;DHT22;27586;51.124;4.182;2023-02-28T11:15:28;6.20;82.20
41904;DHT22;27586;51.124;4.182;2023-02-28T11:20:25;5.90;85.30
41904;DHT22;27586;51.124;4.182;2023-02-28T11:22:52;5.90;83.00
41904;DHT22;27586;51.124;4.182;2023-02-28T11:25:32;5.90;82.00
41904;DHT22;27586;51.124;4.182;2023-02-28T11:28:00;6.00;82.40
41904;DHT22;27586;51.124;4.182;2023-02-28T11:30:39;5.90;79.90
41904;DHT22;27586;51.124;4.182;2023-02-28T11:35:50;6.20;78.30
41904;DHT22;27586;51.124;4.182;2023-02-28T11:38:16;6.20;78.50
41904;DHT22;27586;51.124;4.182;2023-02-28T11:51:26;6.40;78.10
41904;DHT22;27586;51.124;4.182;2023-02-28T11:57:03;6.20;74.20
41904;DHT22;27586;51.124;4.182;2023-02-28T12:05:34;6.50;75.80
41904;DHT22;27586;51.124;4.182;2023-02-28T12:20:24;6.40;71.90
41904;DHT22;27586;51.124;4.182;2023-02-28T12:23:25;6.30;72.70
41904;DHT22;27586;51.124;4.182;2023-02-28T12:29:30;6.50;72.80
41904;DHT22;27586;51.124;4.182;2023-02-28T12:34:46;6.80;74.80
41904;DHT22;27586;51.124;4.182;2023-02-28T12:37:33;6.80;73.50
41904;DHT22;27586;51.124;4.182;2023-02-28T12:40:11;6.60;73.60
41904;DHT22;27586;51.124;4.182;2023-02-28T12:42:42;6.40;72.40
41904;DHT22;27586;51.124;4.182;2023-02-28T12:47:50;6.20;74.90
41904;DHT22;27586;51.124;4.182;2023-02-28T12:50:18;6.20;73.40
41904;DHT22;27586;51.124;4.182;2023-02-28T12:52:59;6.30;74.10
41904;DHT22;27586;51.124;4.182;2023-02-28T12:55:48;6.20;73.80
41904;DHT22;27586;51.124;4.182;2023-02-28T12:58:26;6.20;73.20
41904;DHT22;27586;51.124;4.182;2023-02-28T13:03:54;6.40;74.30
41904;DHT22;27586;51.124;4.182;2023-02-28T13:09:16;6.50;72.90
41904;DHT22;27586;51.124;4.182;2023-02-28T13:11:50;6.70;72.50
41904;DHT22;27586;51.124;4.182;2023-02-28T13:22:42;6.50;73.30
41904;DHT22;27586;51.124;4.182;2023-02-28T13:28:01;6.70;73.40
41904;DHT22;27586;51.124;4.182;2023-02-28T13:33:28;6.50;72.80
41904;DHT22;27586;51.124;4.182;2023-02-28T13:38:41;6.40;73.00
41904;DHT22;27586;51.124;4.182;2023-02-28T13:44:20;6.60;73.50
41904;DHT22;27586;51.124;4.182;2023-02-28T14:08:52;6.20;73.60
41904;DHT22;27586;51.124;4.182;2023-02-28T14:11:29;6.20;74.10
41904;DHT22;27586;51.124;4.182;2023-02-28T14:13:57;6.30;73.00
41904;DHT22;27586;51.124;4.182;2023-02-28T14:16:35;6.30;73.10
41904;DHT22;27586;51.124;4.182;2023-02-28T14:19:41;6.30;74.70
41904;DHT22;27586;51.124;4.182;2023-02-28T14:27:53;6.30;73.70
41904;DHT22;27586;51.124;4.182;2023-02-28T14:36:18;6.10;75.70
41904;DHT22;27586;51.124;4.182;2023-02-28T14:38:50;6.10;75.90
41904;DHT22;27586;51.124;4.182;2023-02-28T14:41:45;6.30;76.60
41904;DHT22;27586;51.124;4.182;2023-02-28T14:44:22;6.50;75.10
41904;DHT22;27586;51.124;4.182;2023-02-28T14:46:57;6.50;75.50
41904;DHT22;27586;51.124;4.182;2023-02-28T14:49:32;6.30;76.20
41904;DHT22;27586;51.124;4.182;2023-02-28T14:52:15;6.30;75.80
41904;DHT22;27586;51.124;4.182;2023-02-28T14:54:43;6.30;75.20
41904;DHT22;27586;51.124;4.182;2023-02-28T14:57:27;6.40;75.20
41904;DHT22;27586;51.124;4.182;2023-02-28T15:02:34;6.20;76.90
41904;DHT22;27586;51.124;4.182;2023-02-28T15:07:47;6.10;76.30
41904;DHT22;27586;51.124;4.182;2023-02-28T15:10:26;6.10;76.80
41904;DHT22;27586;51.124;4.182;2023-02-28T15:15:26;6.10;76.70
41904;DHT22;27586;51.124;4.182;2023-02-28T15:17:55;6.10;76.30
41904;DHT22;27586;51.124;4.182;2023-02-28T15:20:22;6.10;76.40
41904;DHT22;27586;51.124;4.182;2023-02-28T15:22:51;6.10;78.00
41904;DHT22;27586;51.124;4.182;2023-02-28T15:25:20;6.10;78.10
41904;DHT22;27586;51.124;4.182;2023-02-28T15:27:54;6.00;77.90
41904;DHT22;27586;51.124;4.182;2023-02-28T15:30:33;6.10;78.40
41904;DHT22;27586;51.124;4.182;2023-02-28T15:35:41;6.00;76.90
41904;DHT22;27586;51.124;4.182;2023-02-28T15:38:22;6.00;77.20
41904;DHT22;27586;51.124;4.182;2023-02-28T15:40:53;6.00;77.30
41904;DHT22;27586;51.124;4.182;2023-02-28T15:43:29;6.00;78.30
41904;DHT22;27586;51.124;4.182;2023-02-28T15:48:24;5.90;77.80
41904;DHT22;27586;51.124;4.182;2023-02-28T15:50:56;5.90;78.20
41904;DHT22;27586;51.124;4.182;2023-02-28T15:53:30;5.90;78.10
41904;DHT22;27586;51.124;4.182;2023-02-28T15:56:02;5.90;78.10
41904;DHT22;27586;51.124;4.182;2023-02-28T15:58:29;5.70;77.50
41904;DHT22;27586;51.124;4.182;2023-02-28T16:03:42;5.80;78.40
41904;DHT22;27586;51.124;4.182;2023-02-28T16:08:52;5.50;79.60
41904;DHT22;27586;51.124;4.182;2023-02-28T16:11:20;5.50;79.20
41904;DHT22;27586;51.124;4.182;2023-02-28T16:13:46;5.60;79.90
41904;DHT22;27586;51.124;4.182;2023-02-28T16:16:19;5.70;79.40
41904;DHT22;27586;51.124;4.182;2023-02-28T16:18:45;5.70;78.80
41904;DHT22;27586;51.124;4.182;2023-02-28T16:21:11;5.80;79.20
41904;DHT22;27586;51.124;4.182;2023-02-28T16:23:37;5.70;78.50
41904;DHT22;27586;51.124;4.182;2023-02-28T16:26:04;5.70;79.80
41904;DHT22;27586;51.124;4.182;2023-02-28T16:28:36;5.60;79.60
41904;DHT22;27586;51.124;4.182;2023-02-28T16:31:06;5.50;79.30
41904;DHT22;27586;51.124;4.182;2023-02-28T16:33:33;5.50;79.10
41904;DHT22;27586;51.124;4.182;2023-02-28T16:35:59;5.50;80.00
41904;DHT22;27586;51.124;4.182;2023-02-28T16:38:25;5.50;80.20
41904;DHT22;27586;51.124;4.182;2023-02-28T16:40:52;5.50;80.40
41904;DHT22;27586;51.124;4.182;2023-02-28T16:43:22;5.60;81.00
41904;DHT22;27586;51.124;4.182;2023-02-28T16:45:48;5.50;81.30
41904;DHT22;27586;51.124;4.182;2023-02-28T16:48:19;5.40;82.00
41904;DHT22;27586;51.124;4.182;2023-02-28T16:50:45;5.50;81.60
41904;DHT22;27586;51.124;4.182;2023-02-28T16:53:10;5.40;81.80
41904;DHT22;27586;51.124;4.182;2023-02-28T16:55:36;5.50;81.90
41904;DHT22;27586;51.124;4.182;2023-02-28T16:58:03;5.50;82.20
41904;DHT22;27586;51.124;4.182;2023-02-28T17:00:32;5.50;81.20
41904;DHT22;27586;51.124;4.182;2023-02-28T17:02:58;5.50;81.60
41904;DHT22;27586;51.124;4.182;2023-02-28T17:05:26;5.40;81.70
41904;DHT22;27586;51.124;4.182;2023-02-28T17:07:53;5.50;81.90
41904;DHT22;27586;51.124;4.182;2023-02-28T17:10:24;5.40;82.90
41904;DHT22;27586;51.124;4.182;2023-02-28T17:12:50;5.20;82.30
41904;DHT22;27586;51.124;4.182;2023-02-28T17:15:18;5.20;83.60
41904;DHT22;27586;51.124;4.182;2023-02-28T17:17:45;5.10;83.90
41904;DHT22;27586;51.124;4.182;2023-02-28T17:20:17;5.20;83.90
41904;DHT22;27586;51.124;4.182;2023-02-28T17:22:43;5.10;83.50
41904;DHT22;27586;51.124;4.182;2023-02-28T17:25:10;5.10;84.30
41904;DHT22;27586;51.124;4.182;2023-02-28T17:27:36;4.90;84.00
41904;DHT22;27586;51.124;4.182;2023-02-28T17:32:35;4.80;85.20
41904;DHT22;27586;51.124;4.182;2023-02-28T17:35:01;4.90;85.20
41904;DHT22;27586;51.124;4.182;2023-02-28T17:37:26;5.00;85.10
41904;DHT22;27586;51.124;4.182;2023-02-28T17:39:52;4.90;85.90
41904;DHT22;27586;51.124;4.182;2023-02-28T17:42:18;4.90;85.10
41904;DHT22;27586;51.124;4.182;2023-02-28T17:44:43;4.80;85.50
41904;DHT22;27586;51.124;4.182;2023-02-28T17:47:11;4.80;86.00
41904;DHT22;27586;51.124;4.182;2023-02-28T17:49:37;4.70;86.20
41904;DHT22;27586;51.124;4.182;2023-02-28T17:52:03;4.80;86.70
41904;DHT22;27586;51.124;4.182;2023-02-28T17:54:29;4.60;86.60
41904;DHT22;27586;51.124;4.182;2023-02-28T17:56:54;4.60;87.10
41904;DHT22;27586;51.124;4.182;2023-02-28T17:59:20;4.40;87.30
41904;DHT22;27586;51.124;4.182;2023-02-28T18:01:46;4.50;87.70
41904;DHT22;27586;51.124;4.182;2023-02-28T18:04:12;4.60;87.60
41904;DHT22;27586;51.124;4.182;2023-02-28T18:06:40;4.50;88.00
41904;DHT22;27586;51.124;4.182;2023-02-28T18:09:17;4.40;88.50
41904;DHT22;27586;51.124;4.182;2023-02-28T18:11:43;4.30;88.90
41904;DHT22;27586;51.124;4.182;2023-02-28T18:14:13;4.20;88.90
41904;DHT22;27586;51.124;4.182;2023-02-28T18:16:39;4.20;89.70
41904;DHT22;27586;51.124;4.182;2023-02-28T18:19:05;4.20;90.00
41904;DHT22;27586;51.124;4.182;2023-02-28T18:21:31;4.20;90.30
41904;DHT22;27586;51.124;4.182;2023-02-28T18:23:57;4.00;90.90
41904;DHT22;27586;51.124;4.182;2023-02-28T18:26:23;4.00;91.00
41904;DHT22;27586;51.124;4.182;2023-02-28T18:28:48;3.90;91.40
41904;DHT22;27586;51.124;4.182;2023-02-28T18:31:18;3.80;92.00
41904;DHT22;27586;51.124;4.182;2023-02-28T18:33:48;3.80;91.90
41904;DHT22;27586;51.124;4.182;2023-02-28T18:36:13;3.80;91.80
41904;DHT22;27586;51.124;4.182;2023-02-28T18:38:39;3.70;92.00
41904;DHT22;27586;51.124;4.182;2023-02-28T18:41:06;3.80;92.20
41904;DHT22;27586;51.124;4.182;2023-02-28T18:43:33;3.70;92.50
41904;DHT22;27586;51.124;4.182;2023-02-28T18:46:11;3.60;93.00
41904;DHT22;27586;51.124;4.182;2023-02-28T18:48:37;3.50;92.70
41904;DHT22;27586;51.124;4.182;2023-02-28T18:53:37;3.40;93.50
41904;DHT22;27586;51.124;4.182;2023-02-28T18:56:04;3.40;93.40
41904;DHT22;27586;51.124;4.182;2023-02-28T18:58:31;3.40;93.50